createdAt,value
2022-08-29T00:00:17.659Z,71.50
2022-08-29T00:02:46.594Z,71.40
2022-08-29T00:05:14.062Z,71.50
2022-08-29T00:07:40.840Z,71.70
2022-08-29T00:10:08.307Z,71.70
2022-08-29T00:12:35.242Z,71.80
2022-08-29T00:15:02.017Z,71.90
2022-08-29T00:17:28.787Z,72.10
2022-08-29T00:19:55.551Z,72.20
2022-08-29T00:22:22.347Z,72.30
2022-08-29T00:24:49.164Z,72.50
2022-08-29T00:27:15.964Z,72.50
2022-08-29T00:29:42.834Z,72.70
2022-08-29T00:32:09.635Z,72.30
2022-08-29T00:34:36.415Z,72.20
2022-08-29T00:37:03.212Z,72.10
2022-08-29T00:39:30.427Z,72.20
2022-08-29T00:41:59.809Z,72.40
2022-08-29T00:44:27.027Z,72.70
2022-08-29T00:46:56.004Z,72.70
2022-08-29T00:49:27.914Z,72.80
2022-08-29T00:51:54.852Z,72.90
2022-08-29T00:54:21.624Z,72.90
2022-08-29T00:56:48.458Z,72.90
2022-08-29T00:59:25.955Z,73.10
2022-08-29T01:01:55.747Z,73.40
2022-08-29T01:04:23.653Z,73.00
2022-08-29T01:06:51.327Z,73.00
2022-08-29T01:09:18.096Z,73.00
2022-08-29T01:12:03.268Z,72.80
2022-08-29T01:14:30.082Z,72.90
2022-08-29T01:16:58.110Z,73.00
2022-08-29T01:19:48.057Z,73.00
2022-08-29T01:23:01.119Z,73.20
2022-08-29T01:25:32.976Z,73.30
2022-08-29T01:28:20.558Z,73.40
2022-08-29T01:31:49.113Z,73.50
2022-08-29T01:34:07.584Z,73.70
2022-08-29T01:36:57.455Z,73.80
2022-08-29T01:39:28.524Z,73.40
2022-08-29T01:41:57.014Z,73.20
2022-08-29T01:44:25.537Z,73.90
2022-08-29T01:46:57.874Z,73.20
2022-08-29T01:49:27.607Z,73.40
2022-08-29T01:51:54.382Z,73.70
2022-08-29T01:54:21.197Z,73.70
2022-08-29T01:56:50.143Z,73.70
2022-08-29T01:59:19.068Z,73.90
2022-08-29T02:01:50.220Z,73.90
2022-08-29T02:04:17.018Z,74.10
2022-08-29T02:06:44.980Z,74.30
2022-08-29T02:09:11.960Z,74.30
2022-08-29T02:11:39.930Z,74.10
2022-08-29T02:14:07.097Z,74.00
2022-08-29T02:16:33.989Z,73.60
2022-08-29T02:19:00.820Z,73.70
2022-08-29T02:21:28.905Z,73.90
2022-08-29T02:23:57.021Z,73.80
2022-08-29T02:26:23.978Z,74.00
2022-08-29T02:28:51.741Z,74.10
2022-08-29T02:31:19.639Z,74.60
2022-08-29T02:33:46.743Z,75.70
2022-08-29T02:36:14.000Z,76.00
2022-08-29T02:38:40.844Z,76.30
2022-08-29T02:41:11.237Z,75.40
2022-08-29T02:43:40.514Z,76.00
2022-08-29T02:46:07.286Z,74.70
2022-08-29T02:48:34.085Z,74.30
2022-08-29T02:51:00.835Z,74.40
2022-08-29T02:53:28.683Z,74.40
2022-08-29T02:55:55.476Z,74.60
2022-08-29T02:58:23.109Z,74.70
2022-08-29T03:00:50.391Z,74.70
2022-08-29T03:03:19.202Z,74.80
2022-08-29T03:05:45.951Z,74.70
2022-08-29T03:08:14.148Z,75.00
2022-08-29T03:10:42.146Z,75.00
2022-08-29T03:13:09.205Z,75.00
2022-08-29T03:15:36.142Z,75.00
2022-08-29T03:18:02.969Z,74.70
2022-08-29T03:20:29.932Z,74.50
2022-08-29T03:22:57.419Z,74.40
2022-08-29T03:25:24.783Z,74.60
2022-08-29T03:27:52.840Z,74.70
2022-08-29T03:30:19.764Z,74.80
2022-08-29T03:32:47.104Z,74.70
2022-08-29T03:35:14.293Z,74.90
2022-08-29T03:37:41.076Z,74.90
2022-08-29T03:40:08.972Z,75.00
2022-08-29T03:42:35.806Z,75.10
2022-08-29T03:45:04.474Z,75.10
2022-08-29T03:47:31.248Z,74.90
2022-08-29T03:49:57.989Z,74.80
2022-08-29T03:52:25.167Z,74.80
2022-08-29T03:54:52.214Z,74.50
2022-08-29T03:57:19.021Z,74.60
2022-08-29T03:59:46.059Z,74.80
2022-08-29T04:02:12.883Z,75.80
2022-08-29T04:04:58.227Z,75.00
2022-08-29T04:07:25.104Z,75.00
2022-08-29T04:09:51.847Z,75.10
2022-08-29T04:12:18.597Z,75.20
2022-08-29T04:14:45.376Z,75.20
2022-08-29T04:17:12.489Z,75.50
2022-08-29T04:19:39.721Z,75.30
2022-08-29T04:22:06.584Z,75.10
2022-08-29T04:24:33.842Z,74.90
2022-08-29T04:27:00.616Z,74.80
2022-08-29T04:29:28.218Z,74.80
2022-08-29T04:31:55.031Z,75.00
2022-08-29T04:34:21.888Z,75.00
2022-08-29T04:36:48.698Z,75.20
2022-08-29T04:39:15.983Z,75.30
2022-08-29T04:41:43.123Z,75.70
2022-08-29T04:44:11.354Z,75.40
2022-08-29T04:46:38.744Z,75.90
2022-08-29T04:49:06.054Z,76.00
2022-08-29T04:51:34.543Z,76.20
2022-08-29T04:54:01.674Z,76.50
2022-08-29T04:56:29.042Z,76.60
2022-08-29T04:58:57.095Z,76.90
2022-08-29T05:01:26.832Z,76.80
2022-08-29T05:03:55.177Z,77.20
2022-08-29T05:06:24.406Z,77.50
2022-08-29T05:08:57.666Z,77.20
2022-08-29T05:11:29.692Z,77.50
2022-08-29T05:13:56.864Z,76.80
2022-08-29T05:16:24.081Z,77.10
2022-08-29T05:18:52.470Z,75.30
2022-08-29T05:21:35.121Z,74.80
2022-08-29T05:24:05.535Z,75.30
2022-08-29T05:26:33.914Z,75.70
2022-08-29T05:29:00.674Z,77.20
2022-08-29T05:31:27.582Z,76.70
2022-08-29T05:33:55.307Z,76.90
2022-08-29T05:36:22.455Z,79.00
2022-08-29T05:38:49.608Z,79.70
2022-08-29T05:41:17.778Z,80.00
2022-08-29T05:43:45.066Z,79.10
2022-08-29T05:46:12.261Z,82.80
2022-08-29T05:48:41.443Z,76.30
2022-08-29T05:51:14.719Z,75.40
2022-08-29T05:53:41.480Z,76.80
2022-08-29T05:56:08.610Z,76.60
2022-08-29T05:58:35.649Z,76.00
2022-08-29T06:01:02.730Z,75.70
2022-08-29T06:03:31.542Z,76.30
2022-08-29T06:05:59.198Z,76.00
2022-08-29T06:08:25.992Z,76.00
2022-08-29T06:10:52.829Z,76.10
2022-08-29T06:13:19.591Z,75.80
2022-08-29T06:15:46.762Z,75.40
2022-08-29T06:18:14.087Z,75.30
2022-08-29T06:20:41.459Z,75.70
2022-08-29T06:23:08.356Z,75.60
2022-08-29T06:25:39.922Z,75.30
2022-08-29T06:28:07.349Z,75.00
2022-08-29T06:30:34.228Z,75.30
2022-08-29T06:33:01.771Z,74.30
2022-08-29T06:35:28.933Z,74.60
2022-08-29T06:37:55.756Z,74.90
2022-08-29T06:40:22.730Z,75.10
2022-08-29T06:42:49.549Z,75.10
2022-08-29T06:45:16.914Z,76.10
2022-08-29T06:47:45.742Z,75.40
2022-08-29T06:50:12.555Z,75.40
2022-08-29T06:52:39.706Z,75.60
2022-08-29T06:55:11.821Z,76.50
2022-08-29T06:57:44.627Z,75.90
2022-08-29T07:00:22.375Z,75.30
2022-08-29T07:02:51.702Z,75.10
2022-08-29T07:05:20.158Z,75.10
2022-08-29T07:07:46.916Z,74.80
2022-08-29T07:10:18.696Z,74.80
2022-08-29T07:12:48.450Z,75.40
2022-08-29T07:15:15.493Z,75.60
2022-08-29T07:17:42.783Z,77.10
2022-08-29T07:20:10.596Z,79.40
2022-08-29T07:22:37.875Z,79.80
2022-08-29T07:25:05.361Z,79.80
2022-08-29T07:27:32.537Z,79.30
2022-08-29T07:30:02.741Z,79.30
2022-08-29T07:32:30.016Z,78.70
2022-08-29T07:34:56.829Z,78.50
2022-08-29T07:37:23.741Z,79.10
2022-08-29T07:39:50.582Z,79.10
2022-08-29T07:42:17.439Z,78.70
2022-08-29T07:44:44.198Z,78.10
2022-08-29T07:47:11.272Z,77.70
2022-08-29T07:49:41.606Z,77.30
2022-08-29T07:52:08.912Z,76.90
2022-08-29T07:54:35.736Z,77.10
2022-08-29T07:57:02.508Z,78.00
2022-08-29T07:59:30.523Z,77.70
2022-08-29T08:01:57.426Z,77.60
2022-08-29T08:04:24.452Z,77.40
2022-08-29T08:06:51.711Z,77.50
2022-08-29T08:09:18.512Z,77.40
2022-08-29T08:11:45.309Z,77.30
2022-08-29T08:14:12.172Z,76.90
2022-08-29T08:16:39.159Z,77.60
2022-08-29T08:19:11.787Z,76.60
2022-08-29T08:21:38.558Z,76.70
2022-08-29T08:24:19.582Z,77.10
2022-08-29T08:26:47.926Z,77.50
2022-08-29T08:29:14.687Z,77.30
2022-08-29T08:31:45.473Z,77.20
2022-08-29T08:34:15.546Z,77.20
2022-08-29T08:36:42.972Z,77.30
2022-08-29T08:39:09.855Z,77.00
2022-08-29T08:41:57.972Z,77.00
2022-08-29T08:44:25.202Z,77.20
2022-08-29T08:46:53.396Z,76.90
2022-08-29T08:49:32.579Z,76.70
2022-08-29T08:52:02.266Z,76.50
2022-08-29T08:54:33.218Z,76.60
2022-08-29T08:57:06.513Z,76.70
2022-08-29T08:59:43.568Z,76.70
2022-08-29T09:02:34.861Z,77.20
2022-08-29T09:05:22.966Z,77.50
2022-08-29T09:08:01.777Z,77.30
2022-08-29T09:10:34.914Z,76.90
2022-08-29T09:13:07.719Z,76.80
2022-08-29T09:15:40.404Z,76.80
2022-08-29T09:18:23.892Z,76.80
2022-08-29T09:20:50.960Z,76.50
2022-08-29T09:23:28.995Z,76.50
2022-08-29T09:25:55.999Z,76.60
2022-08-29T09:28:22.792Z,76.40
2022-08-29T09:31:35.393Z,76.20
2022-08-29T09:34:04.307Z,76.40
2022-08-29T09:36:50.744Z,76.60
2022-08-29T09:39:34.357Z,76.60
2022-08-29T09:42:17.566Z,76.40
2022-08-29T09:44:59.118Z,76.50
2022-08-29T09:47:30.256Z,76.30
2022-08-29T09:50:26.685Z,76.40
2022-08-29T09:52:57.750Z,76.70
2022-08-29T09:55:45.077Z,76.90
2022-08-29T09:58:21.154Z,77.10
2022-08-29T10:01:01.355Z,77.00
2022-08-29T10:03:30.363Z,77.20
2022-08-29T10:06:12.696Z,77.20
2022-08-29T10:08:40.006Z,77.20
2022-08-29T10:11:16.168Z,77.30
2022-08-29T10:13:52.896Z,77.50
2022-08-29T10:16:39.721Z,77.40
2022-08-29T10:19:16.116Z,77.50
2022-08-29T10:22:15.991Z,77.50
2022-08-29T10:25:01.746Z,77.80
2022-08-29T10:27:35.438Z,77.70
2022-08-29T10:30:10.520Z,77.90
2022-08-29T10:32:43.107Z,78.20
2022-08-29T10:35:40.590Z,77.90
2022-08-29T10:38:14.182Z,77.70
2022-08-29T10:40:47.308Z,77.90
2022-08-29T10:43:51.123Z,78.00
2022-08-29T10:46:20.899Z,77.80
2022-08-29T10:49:12.239Z,77.90
2022-08-29T10:52:03.838Z,77.80
2022-08-29T10:54:30.680Z,77.90
2022-08-29T10:56:57.484Z,77.80
2022-08-29T10:59:42.404Z,77.80
2022-08-29T11:02:20.695Z,77.90
2022-08-29T11:04:50.758Z,78.10
2022-08-29T11:07:35.122Z,77.80
2022-08-29T11:10:10.464Z,77.80
2022-08-29T11:12:49.839Z,77.70
2022-08-29T11:15:37.935Z,77.90
2022-08-29T11:18:26.372Z,77.70
2022-08-29T11:21:03.081Z,77.90
2022-08-29T11:23:44.588Z,77.80
2022-08-29T11:26:22.389Z,77.70
2022-08-29T11:29:07.816Z,77.50
2022-08-29T11:31:46.760Z,77.70
2022-08-29T11:34:45.987Z,77.70
2022-08-29T11:37:49.412Z,77.60
2022-08-29T11:43:44.949Z,76.90
2022-08-29T11:46:12.300Z,76.00
2022-08-29T11:48:43.738Z,76.80
2022-08-29T11:51:37.477Z,77.00
2022-08-29T11:54:40.306Z,77.00
2022-08-29T11:57:09.989Z,77.30
2022-08-29T12:00:04.002Z,77.40
2022-08-29T12:02:30.947Z,77.50
2022-08-29T12:05:09.618Z,77.40
2022-08-29T12:07:42.285Z,77.50
2022-08-29T12:10:28.355Z,78.10
2022-08-29T12:13:02.590Z,77.70
2022-08-29T12:15:35.464Z,77.80
2022-08-29T12:18:23.190Z,77.80
2022-08-29T12:20:51.013Z,78.60
2022-08-29T12:23:21.217Z,78.00
2022-08-29T12:26:09.401Z,78.00
2022-08-29T12:28:47.737Z,78.00
2022-08-29T12:31:20.651Z,78.00
2022-08-29T12:34:25.576Z,78.00
2022-08-29T12:37:22.778Z,77.90
2022-08-29T12:40:08.766Z,77.90
2022-08-29T12:43:03.177Z,78.00
2022-08-29T12:45:32.254Z,78.00
2022-08-29T12:48:00.920Z,78.10
2022-08-29T12:50:30.430Z,78.30
2022-08-29T12:53:04.270Z,78.10
2022-08-29T12:55:44.680Z,78.20
2022-08-29T12:58:13.387Z,78.20
2022-08-29T13:00:42.188Z,78.40
2022-08-29T13:03:19.571Z,78.40
2022-08-29T13:05:46.556Z,78.40
2022-08-29T13:08:33.437Z,78.60
2022-08-29T13:11:01.967Z,77.90
2022-08-29T13:13:29.178Z,77.30
2022-08-29T13:16:01.323Z,77.80
2022-08-29T13:18:29.562Z,77.90
2022-08-29T13:21:18.068Z,77.30
2022-08-29T13:23:46.610Z,77.60
2022-08-29T13:26:14.377Z,78.60
2022-08-29T13:28:44.234Z,82.40
2022-08-29T13:31:17.879Z,78.40
2022-08-29T13:33:50.577Z,79.40
2022-08-29T13:36:56.044Z,84.40
2022-08-29T13:39:27.101Z,79.90
2022-08-29T13:42:03.204Z,81.00
2022-08-29T13:44:30.959Z,82.20
2022-08-29T13:47:01.012Z,82.00
2022-08-29T13:49:32.913Z,81.70
2022-08-29T13:52:03.384Z,81.80
2022-08-29T13:54:31.265Z,83.00
2022-08-29T13:56:58.471Z,83.00
2022-08-29T13:59:26.409Z,82.90
2022-08-29T14:02:12.216Z,84.00
2022-08-29T14:04:41.240Z,83.30
2022-08-29T14:07:37.378Z,82.80
2022-08-29T14:10:07.622Z,83.30
2022-08-29T14:12:34.973Z,84.20
2022-08-29T14:15:08.367Z,84.70
2022-08-29T14:17:39.921Z,85.10
2022-08-29T14:20:09.571Z,86.00
2022-08-29T14:22:36.789Z,86.20
2022-08-29T14:25:04.331Z,86.40
2022-08-29T14:27:31.175Z,86.90
2022-08-29T14:29:58.102Z,85.90
2022-08-29T14:32:26.956Z,85.50
2022-08-29T14:34:53.874Z,85.00
2022-08-29T14:37:20.772Z,84.70
2022-08-29T14:39:50.007Z,84.30
2022-08-29T14:42:18.175Z,84.10
2022-08-29T14:44:45.046Z,83.60
2022-08-29T14:47:12.071Z,83.10
2022-08-29T14:49:38.979Z,82.70
2022-08-29T14:52:06.148Z,81.80
2022-08-29T14:54:33.044Z,81.50
2022-08-29T14:57:01.066Z,81.50
2022-08-29T14:59:28.141Z,81.80
2022-08-29T15:01:55.516Z,81.90
2022-08-29T15:04:36.684Z,82.10
2022-08-29T15:07:13.855Z,81.60
2022-08-29T15:09:41.937Z,81.20
2022-08-29T15:12:08.922Z,81.10
2022-08-29T15:14:36.989Z,81.10
2022-08-29T15:17:05.169Z,81.10
2022-08-29T15:22:24.898Z,80.40
2022-08-29T15:24:52.490Z,80.30
2022-08-29T15:27:24.867Z,80.60
2022-08-29T15:29:54.154Z,81.00
2022-08-29T15:32:21.188Z,81.40
2022-08-29T15:34:51.378Z,81.30
2022-08-29T15:37:18.418Z,81.20
2022-08-29T15:39:45.709Z,81.30
2022-08-29T15:42:17.145Z,81.40
2022-08-29T15:44:45.354Z,81.70
2022-08-29T15:47:12.803Z,82.00
2022-08-29T15:49:41.630Z,82.40
2022-08-29T15:52:08.759Z,83.70
2022-08-29T15:54:36.363Z,84.60
2022-08-29T15:57:03.688Z,85.70
2022-08-29T15:59:54.382Z,85.80
2022-08-29T16:02:17.883Z,86.30
2022-08-29T16:04:47.863Z,86.00
2022-08-29T16:07:16.951Z,86.80
2022-08-29T16:09:45.411Z,88.10
2022-08-29T16:12:12.513Z,88.90
2022-08-29T16:14:59.096Z,87.50
2022-08-29T16:17:30.068Z,86.60
2022-08-29T16:19:58.100Z,86.60
2022-08-29T16:22:25.293Z,86.10
2022-08-29T16:24:52.087Z,86.00
2022-08-29T16:27:23.283Z,71.00
2022-08-29T16:29:51.339Z,69.50
2022-08-29T16:32:18.136Z,67.40
2022-08-29T16:34:44.967Z,63.50
2022-08-29T16:37:11.844Z,69.20
2022-08-29T16:39:38.893Z,65.60
2022-08-29T16:42:05.851Z,65.20
2022-08-29T16:44:33.872Z,60.00
2022-08-29T16:47:01.492Z,58.40
2022-08-29T16:49:28.285Z,54.80
2022-08-29T16:51:55.056Z,55.10
2022-08-29T16:54:22.124Z,56.00
2022-08-29T16:56:48.892Z,56.80
2022-08-29T16:59:15.691Z,58.50
2022-08-29T17:01:47.089Z,58.00
2022-08-29T17:04:16.290Z,57.70
2022-08-29T17:06:43.297Z,57.50
2022-08-29T17:09:10.056Z,57.50
2022-08-29T17:11:37.525Z,57.30
2022-08-29T17:14:05.104Z,57.60
2022-08-29T17:16:32.018Z,57.30
2022-08-29T17:18:58.839Z,56.80
2022-08-29T17:21:27.037Z,56.10
2022-08-29T17:23:54.389Z,57.90
2022-08-29T17:26:21.456Z,56.10
2022-08-29T17:28:48.315Z,56.80
2022-08-29T17:31:15.260Z,56.40
2022-08-29T17:33:42.184Z,55.80
2022-08-29T17:36:09.870Z,56.00
2022-08-29T17:38:39.324Z,56.40
2022-08-29T17:41:15.255Z,55.80
2022-08-29T17:43:44.401Z,57.50
2022-08-29T17:46:11.202Z,57.40
2022-08-29T17:48:38.229Z,58.50
2022-08-29T17:51:05.741Z,58.70
2022-08-29T17:53:32.625Z,59.30
2022-08-29T17:56:10.110Z,60.00
2022-08-29T17:58:36.894Z,59.90
2022-08-29T18:01:03.729Z,60.10
2022-08-29T18:03:30.510Z,60.20
2022-08-29T18:05:57.286Z,60.50
2022-08-29T18:08:24.040Z,60.90
2022-08-29T18:10:51.699Z,61.30
2022-08-29T18:13:21.797Z,61.60
2022-08-29T18:15:50.724Z,61.80
2022-08-29T18:18:20.053Z,62.40
2022-08-29T18:20:47.109Z,62.60
2022-08-29T18:23:13.857Z,62.90
2022-08-29T18:25:40.720Z,65.80
2022-08-29T18:28:08.441Z,64.90
2022-08-29T18:30:35.559Z,65.80
2022-08-29T18:33:02.374Z,63.20
2022-08-29T18:35:29.148Z,62.90
2022-08-29T18:37:55.904Z,63.00
2022-08-29T18:40:23.296Z,63.70
2022-08-29T18:42:50.561Z,63.50
2022-08-29T18:45:17.580Z,64.50
2022-08-29T18:47:44.600Z,64.30
2022-08-29T18:50:30.100Z,64.80
2022-08-29T18:52:58.034Z,65.20
2022-08-29T18:55:25.104Z,66.50
2022-08-29T18:57:52.186Z,67.10
2022-08-29T19:00:19.919Z,67.50
2022-08-29T19:02:47.151Z,68.30
2022-08-29T19:05:13.988Z,68.40
2022-08-29T19:07:40.909Z,68.40
2022-08-29T19:10:08.555Z,68.90
2022-08-29T19:12:35.640Z,68.90
2022-08-29T19:15:04.283Z,68.30
2022-08-29T19:17:31.457Z,67.90
2022-08-29T19:20:16.685Z,68.00
2022-08-29T19:22:43.596Z,68.10
2022-08-29T19:25:10.419Z,68.40
2022-08-29T19:27:43.526Z,68.30
2022-08-29T19:30:12.084Z,68.40
2022-08-29T19:32:39.252Z,68.30
2022-08-29T19:35:06.512Z,67.80
2022-08-29T19:37:33.294Z,67.50
2022-08-29T19:40:00.230Z,67.00
2022-08-29T19:42:28.182Z,66.80
2022-08-29T19:44:55.306Z,66.40
2022-08-29T19:47:23.423Z,66.80
2022-08-29T19:49:50.884Z,66.90
2022-08-29T19:52:17.700Z,66.90
2022-08-29T19:54:44.494Z,66.60
2022-08-29T19:57:14.913Z,66.30
2022-08-29T19:59:42.357Z,66.30
2022-08-29T20:02:10.527Z,66.30
2022-08-29T20:04:37.458Z,66.30
2022-08-29T20:07:05.330Z,66.20
2022-08-29T20:09:32.103Z,66.00
2022-08-29T20:11:59.186Z,65.80
2022-08-29T20:14:26.095Z,65.50
2022-08-29T20:16:53.057Z,65.70
2022-08-29T20:19:21.340Z,65.60
2022-08-29T20:21:49.101Z,66.70
2022-08-29T20:24:16.511Z,66.70
2022-08-29T20:26:45.021Z,67.70
2022-08-29T20:29:12.393Z,69.20
2022-08-29T20:31:39.418Z,69.00
2022-08-29T20:34:06.392Z,69.20
2022-08-29T20:36:51.694Z,69.60
2022-08-29T20:39:20.491Z,70.00
2022-08-29T20:41:57.724Z,70.40
2022-08-29T20:44:28.139Z,70.90
2022-08-29T20:46:57.227Z,71.00
2022-08-29T20:49:25.132Z,71.10
2022-08-29T20:51:52.178Z,71.00
2022-08-29T20:54:20.893Z,71.20
2022-08-29T20:56:48.596Z,71.10
2022-08-29T20:59:15.966Z,71.10
2022-08-29T21:01:44.027Z,71.00
2022-08-29T21:04:29.577Z,71.10
2022-08-29T21:07:01.512Z,71.30
2022-08-29T21:09:28.801Z,71.70
2022-08-29T21:11:55.618Z,71.90
2022-08-29T21:14:22.607Z,72.00
2022-08-29T21:16:53.388Z,73.00
2022-08-29T21:19:21.695Z,72.30
2022-08-29T21:21:51.110Z,72.50
2022-08-29T21:24:18.054Z,72.50
2022-08-29T21:26:45.357Z,72.80
2022-08-29T21:29:12.217Z,72.70
2022-08-29T21:31:39.230Z,72.60
2022-08-29T21:34:08.524Z,72.50
2022-08-29T21:36:36.081Z,72.60
2022-08-29T21:39:03.456Z,72.90
2022-08-29T21:41:30.909Z,73.10
2022-08-29T21:43:57.868Z,73.30
2022-08-29T21:46:31.690Z,73.40
2022-08-29T21:49:02.884Z,73.60
2022-08-29T21:51:30.239Z,73.70
2022-08-29T21:53:57.201Z,73.90
2022-08-29T21:56:24.912Z,74.00
2022-08-29T21:58:56.141Z,74.10
2022-08-29T22:01:27.189Z,74.00
2022-08-29T22:03:54.559Z,74.00
2022-08-29T22:06:21.724Z,73.70
2022-08-29T22:08:49.052Z,74.00
2022-08-29T22:11:19.762Z,74.10
2022-08-29T22:13:46.536Z,74.20
2022-08-29T22:16:29.082Z,74.50
2022-08-29T22:19:01.811Z,74.50
2022-08-29T22:21:31.587Z,74.70
2022-08-29T22:23:58.650Z,74.80
2022-08-29T22:26:25.658Z,75.00
2022-08-29T22:28:52.527Z,75.10
2022-08-29T22:31:19.835Z,74.90
2022-08-29T22:33:46.903Z,74.70
2022-08-29T22:36:14.081Z,74.60
2022-08-29T22:38:44.060Z,74.60
2022-08-29T22:41:12.214Z,75.00
2022-08-29T22:43:39.051Z,75.20
2022-08-29T22:46:13.893Z,75.40
2022-08-29T22:48:40.846Z,75.40
2022-08-29T22:51:23.735Z,75.60
2022-08-29T22:54:09.877Z,75.70
2022-08-29T22:56:38.050Z,75.80
2022-08-29T22:59:06.619Z,76.00
2022-08-29T23:01:34.682Z,76.10
2022-08-29T23:04:01.604Z,76.00
2022-08-29T23:06:28.695Z,75.70
2022-08-29T23:08:55.538Z,75.60
2022-08-29T23:11:24.424Z,75.70
2022-08-29T23:13:52.508Z,75.90
2022-08-29T23:16:19.562Z,76.00
2022-08-29T23:18:46.470Z,76.20
2022-08-29T23:21:13.283Z,76.30
2022-08-29T23:23:40.163Z,76.30
2022-08-29T23:26:07.090Z,76.50
2022-08-29T23:28:34.329Z,76.60
2022-08-29T23:31:01.862Z,76.70
2022-08-29T23:33:28.920Z,76.90
2022-08-29T23:35:55.723Z,76.70
2022-08-29T23:38:23.195Z,76.60
2022-08-29T23:40:50.742Z,76.30
2022-08-29T23:43:21.214Z,77.20
2022-08-29T23:45:48.956Z,76.60
2022-08-29T23:48:15.987Z,76.80
2022-08-29T23:50:42.786Z,76.90
2022-08-29T23:53:12.313Z,77.10
2022-08-29T23:55:39.880Z,77.10
2022-08-29T23:58:06.727Z,77.20
